sensor_id;sensor_type;location;lat;lon;timestamp;pressure;altitude;pressure_sealevel;temperature;humidity
60069;BME280;45945;53.350;55.922;2022-07-24T00:00:48;99158.94;;;18.77;82.00
60069;BME280;45945;53.350;55.922;2022-07-24T00:01:49;99144.94;;;18.72;82.47
60069;BME280;45945;53.350;55.922;2022-07-24T00:02:49;99154.47;;;18.81;81.67
60069;BME280;45945;53.350;55.922;2022-07-24T00:03:50;99157.13;;;18.80;82.17
60069;BME280;45945;53.350;55.922;2022-07-24T00:04:51;99159.78;;;18.80;81.90
60069;BME280;45945;53.350;55.922;2022-07-24T00:05:56;99157.13;;;18.78;81.98
60069;BME280;45945;53.350;55.922;2022-07-24T00:06:57;99162.44;;;18.80;82.03
60069;BME280;45945;53.350;55.922;2022-07-24T00:07:58;99159.75;;;18.81;81.87
60069;BME280;45945;53.350;55.922;2022-07-24T00:08:58;99158.97;;;18.76;82.08
60069;BME280;45945;53.350;55.922;2022-07-24T00:10:00;99159.16;;;18.67;82.68
60069;BME280;45945;53.350;55.922;2022-07-24T00:11:01;99161.88;;;18.64;82.88
60069;BME280;45945;53.350;55.922;2022-07-24T00:12:01;99158.50;;;18.54;83.10
60069;BME280;45945;53.350;55.922;2022-07-24T00:13:02;99157.59;;;18.56;83.04
60069;BME280;45945;53.350;55.922;2022-07-24T00:14:03;99154.75;;;18.66;82.49
60069;BME280;45945;53.350;55.922;2022-07-24T00:15:04;99164.50;;;18.64;83.04
60069;BME280;45945;53.350;55.922;2022-07-24T00:16:05;99156.69;;;18.57;83.06
60069;BME280;45945;53.350;55.922;2022-07-24T00:17:06;99164.84;;;18.47;83.64
60069;BME280;45945;53.350;55.922;2022-07-24T00:18:07;99165.59;;;18.53;83.45
60069;BME280;45945;53.350;55.922;2022-07-24T00:19:08;99163.88;;;18.51;83.79
60069;BME280;45945;53.350;55.922;2022-07-24T00:20:09;99163.13;;;18.44;83.80
60069;BME280;45945;53.350;55.922;2022-07-24T00:21:10;99166.63;;;18.45;84.15
60069;BME280;45945;53.350;55.922;2022-07-24T00:22:10;99169.44;;;18.37;84.28
60069;BME280;45945;53.350;55.922;2022-07-24T00:23:11;99166.88;;;18.32;84.69
60069;BME280;45945;53.350;55.922;2022-07-24T00:24:12;99166.81;;;18.35;84.64
60069;BME280;45945;53.350;55.922;2022-07-24T00:25:13;99165.84;;;18.41;84.10
60069;BME280;45945;53.350;55.922;2022-07-24T00:26:14;99163.34;;;18.32;84.54
60069;BME280;45945;53.350;55.922;2022-07-24T00:27:16;99166.91;;;18.31;84.89
60069;BME280;45945;53.350;55.922;2022-07-24T00:28:18;99166.06;;;18.29;84.77
60069;BME280;45945;53.350;55.922;2022-07-24T00:29:19;99164.25;;;18.31;84.56
60069;BME280;45945;53.350;55.922;2022-07-24T00:30:20;99164.16;;;18.35;84.53
60069;BME280;45945;53.350;55.922;2022-07-24T00:31:20;99165.91;;;18.36;84.56
60069;BME280;45945;53.350;55.922;2022-07-24T00:32:21;99165.03;;;18.37;84.20
60069;BME280;45945;53.350;55.922;2022-07-24T00:33:22;99165.84;;;18.41;84.25
60069;BME280;45945;53.350;55.922;2022-07-24T00:34:23;99161.25;;;18.49;83.72
60069;BME280;45945;53.350;55.922;2022-07-24T00:35:23;99165.59;;;18.53;83.65
60069;BME280;45945;53.350;55.922;2022-07-24T00:36:24;99162.88;;;18.56;83.49
60069;BME280;45945;53.350;55.922;2022-07-24T00:37:25;99162.03;;;18.56;83.18
60069;BME280;45945;53.350;55.922;2022-07-24T00:38:27;99165.59;;;18.53;83.66
60069;BME280;45945;53.350;55.922;2022-07-24T00:39:28;99167.47;;;18.48;83.74
60069;BME280;45945;53.350;55.922;2022-07-24T00:40:29;99172.75;;;18.48;83.27
60069;BME280;45945;53.350;55.922;2022-07-24T00:41:30;99171.00;;;18.47;83.87
60069;BME280;45945;53.350;55.922;2022-07-24T00:42:31;99172.94;;;18.39;84.02
60069;BME280;45945;53.350;55.922;2022-07-24T00:43:32;99175.69;;;18.33;84.46
60069;BME280;45945;53.350;55.922;2022-07-24T00:44:33;99169.59;;;18.28;84.63
60069;BME280;45945;53.350;55.922;2022-07-24T00:45:34;99177.38;;;18.37;84.31
60069;BME280;45945;53.350;55.922;2022-07-24T00:46:36;99179.06;;;18.41;84.07
60069;BME280;45945;53.350;55.922;2022-07-24T00:47:37;99175.50;;;18.44;84.13
60069;BME280;45945;53.350;55.922;2022-07-24T00:48:38;99177.31;;;18.40;84.13
60069;BME280;45945;53.350;55.922;2022-07-24T00:49:38;99171.88;;;18.48;83.40
60069;BME280;45945;53.350;55.922;2022-07-24T00:50:39;99178.00;;;18.51;83.46
60069;BME280;45945;53.350;55.922;2022-07-24T00:51:41;99178.81;;;18.53;83.33
60069;BME280;45945;53.350;55.922;2022-07-24T00:52:42;99170.81;;;18.56;83.16
60069;BME280;45945;53.350;55.922;2022-07-24T00:53:44;99181.41;;;18.56;83.18
60069;BME280;45945;53.350;55.922;2022-07-24T00:54:45;99177.31;;;18.40;84.01
60069;BME280;45945;53.350;55.922;2022-07-24T00:55:46;99176.25;;;18.49;83.56
60069;BME280;45945;53.350;55.922;2022-07-24T00:56:47;99178.16;;;18.42;84.29
60069;BME280;45945;53.350;55.922;2022-07-24T00:57:48;99179.03;;;18.42;83.94
60069;BME280;45945;53.350;55.922;2022-07-24T00:58:50;99178.91;;;18.49;83.73
60069;BME280;45945;53.350;55.922;2022-07-24T00:59:51;99176.28;;;18.47;83.55
60069;BME280;45945;53.350;55.922;2022-07-24T01:00:52;99188.66;;;18.47;83.62
60069;BME280;45945;53.350;55.922;2022-07-24T01:01:54;99182.53;;;18.43;83.92
60069;BME280;45945;53.350;55.922;2022-07-24T01:02:55;99183.28;;;18.51;83.50
60069;BME280;45945;53.350;55.922;2022-07-24T01:03:57;99184.28;;;18.46;83.81
60069;BME280;45945;53.350;55.922;2022-07-24T01:04:57;99186.84;;;18.49;83.68
60069;BME280;45945;53.350;55.922;2022-07-24T01:05:58;99181.66;;;18.44;84.06
60069;BME280;45945;53.350;55.922;2022-07-24T01:06:59;99186.22;;;18.36;84.57
60069;BME280;45945;53.350;55.922;2022-07-24T01:08:00;99184.41;;;18.38;84.48
60069;BME280;45945;53.350;55.922;2022-07-24T01:09:02;99193.91;;;18.50;83.76
60069;BME280;45945;53.350;55.922;2022-07-24T01:10:03;99190.38;;;18.49;83.92
60069;BME280;45945;53.350;55.922;2022-07-24T01:11:04;99187.63;;;18.54;83.85
60069;BME280;45945;53.350;55.922;2022-07-24T01:12:13;99191.06;;;18.59;83.76
60069;BME280;45945;53.350;55.922;2022-07-24T01:13:13;99193.88;;;18.51;83.90
60069;BME280;45945;53.350;55.922;2022-07-24T01:14:14;99187.94;;;18.37;84.70
60069;BME280;45945;53.350;55.922;2022-07-24T01:15:15;99185.31;;;18.37;84.83
60069;BME280;45945;53.350;55.922;2022-07-24T01:16:16;99183.41;;;18.45;84.50
60069;BME280;45945;53.350;55.922;2022-07-24T01:17:17;99190.31;;;18.52;84.20
60069;BME280;45945;53.350;55.922;2022-07-24T01:18:18;99179.53;;;18.63;83.52
60069;BME280;45945;53.350;55.922;2022-07-24T01:19:19;99186.66;;;18.58;83.76
60069;BME280;45945;53.350;55.922;2022-07-24T01:20:20;99185.72;;;18.62;83.53
60069;BME280;45945;53.350;55.922;2022-07-24T01:21:21;99188.34;;;18.64;83.23
60069;BME280;45945;53.350;55.922;2022-07-24T01:22:21;99177.81;;;18.60;83.51
60069;BME280;45945;53.350;55.922;2022-07-24T01:23:23;99193.69;;;18.60;83.63
60069;BME280;45945;53.350;55.922;2022-07-24T01:24:23;99190.97;;;18.64;83.72
60069;BME280;45945;53.350;55.922;2022-07-24T01:25:24;99184.69;;;18.69;83.28
60069;BME280;45945;53.350;55.922;2022-07-24T01:26:26;99187.06;;;18.83;82.57
60069;BME280;45945;53.350;55.922;2022-07-24T01:27:27;99193.25;;;18.82;82.42
60069;BME280;45945;53.350;55.922;2022-07-24T01:28:27;99189.69;;;18.85;82.48
60069;BME280;45945;53.350;55.922;2022-07-24T01:29:28;99191.50;;;18.83;82.45
60069;BME280;45945;53.350;55.922;2022-07-24T01:30:29;99188.81;;;18.86;82.72
60069;BME280;45945;53.350;55.922;2022-07-24T01:31:30;99189.69;;;18.85;82.56
60069;BME280;45945;53.350;55.922;2022-07-24T01:32:31;99185.13;;;18.93;82.11
60069;BME280;45945;53.350;55.922;2022-07-24T01:33:31;99191.44;;;18.87;82.38
60069;BME280;45945;53.350;55.922;2022-07-24T01:34:32;99191.47;;;18.84;82.78
60069;BME280;45945;53.350;55.922;2022-07-24T01:35:33;99186.03;;;18.92;82.19
60069;BME280;45945;53.350;55.922;2022-07-24T01:36:34;99189.50;;;18.95;82.43
60069;BME280;45945;53.350;55.922;2022-07-24T01:37:34;99196.53;;;18.97;82.09
60069;BME280;45945;53.350;55.922;2022-07-24T01:38:35;99191.31;;;18.93;82.33
60069;BME280;45945;53.350;55.922;2022-07-24T01:39:36;99189.72;;;18.83;82.81
60069;BME280;45945;53.350;55.922;2022-07-24T01:40:37;99189.69;;;18.85;82.71
60069;BME280;45945;53.350;55.922;2022-07-24T01:41:37;99194.00;;;18.92;82.15
60069;BME280;45945;53.350;55.922;2022-07-24T01:42:38;99189.63;;;18.89;82.13
60069;BME280;45945;53.350;55.922;2022-07-24T01:43:39;99198.38;;;18.93;82.16
60069;BME280;45945;53.350;55.922;2022-07-24T01:44:40;99197.53;;;18.91;82.34
60069;BME280;45945;53.350;55.922;2022-07-24T01:45:40;99198.53;;;18.85;82.43
60069;BME280;45945;53.350;55.922;2022-07-24T01:46:41;99194.03;;;18.90;82.22
60069;BME280;45945;53.350;55.922;2022-07-24T01:47:42;99194.91;;;18.89;82.11
60069;BME280;45945;53.350;55.922;2022-07-24T01:48:44;99195.84;;;18.87;82.56
60069;BME280;45945;53.350;55.922;2022-07-24T01:49:45;99191.34;;;18.92;81.94
60069;BME280;45945;53.350;55.922;2022-07-24T01:50:45;99190.34;;;18.96;82.04
60069;BME280;45945;53.350;55.922;2022-07-24T01:51:46;99193.81;;;19.00;81.97
60069;BME280;45945;53.350;55.922;2022-07-24T01:52:47;99195.50;;;19.04;81.95
60069;BME280;45945;53.350;55.922;2022-07-24T01:53:48;99195.50;;;19.04;81.87
60069;BME280;45945;53.350;55.922;2022-07-24T01:54:48;99194.66;;;19.02;81.55
60069;BME280;45945;53.350;55.922;2022-07-24T01:55:50;99190.31;;;18.98;81.50
60069;BME280;45945;53.350;55.922;2022-07-24T01:56:51;99195.63;;;18.98;81.44
60069;BME280;45945;53.350;55.922;2022-07-24T01:57:52;99194.66;;;19.02;81.77
60069;BME280;45945;53.350;55.922;2022-07-24T01:58:52;99196.41;;;19.03;81.25
60069;BME280;45945;53.350;55.922;2022-07-24T01:59:53;99189.28;;;19.05;82.07
60069;BME280;45945;53.350;55.922;2022-07-24T02:00:54;99201.56;;;19.09;81.54
60069;BME280;45945;53.350;55.922;2022-07-24T02:01:54;99196.97;;;19.17;81.29
60069;BME280;45945;53.350;55.922;2022-07-24T02:02:55;99200.47;;;19.19;81.51
60069;BME280;45945;53.350;55.922;2022-07-24T02:03:56;99192.50;;;19.21;81.14
60069;BME280;45945;53.350;55.922;2022-07-24T02:04:57;99198.59;;;19.24;81.09
60069;BME280;45945;53.350;55.922;2022-07-24T02:05:57;99196.84;;;19.23;81.20
60069;BME280;45945;53.350;55.922;2022-07-24T02:06:58;99186.16;;;19.28;80.82
60069;BME280;45945;53.350;55.922;2022-07-24T02:07:59;99195.81;;;19.30;80.89
60069;BME280;45945;53.350;55.922;2022-07-24T02:09:01;99199.34;;;19.31;81.03
60069;BME280;45945;53.350;55.922;2022-07-24T02:10:03;99194.69;;;19.41;80.73
60069;BME280;45945;53.350;55.922;2022-07-24T02:11:04;99199.06;;;19.43;80.28
60069;BME280;45945;53.350;55.922;2022-07-24T02:12:05;99198.97;;;19.48;80.52
60069;BME280;45945;53.350;55.922;2022-07-24T02:13:06;99196.19;;;19.53;79.75
60069;BME280;45945;53.350;55.922;2022-07-24T02:14:07;99197.09;;;19.52;79.77
60069;BME280;45945;53.350;55.922;2022-07-24T02:15:08;99201.50;;;19.53;79.84
60069;BME280;45945;53.350;55.922;2022-07-24T02:16:09;99200.63;;;19.52;80.19
60069;BME280;45945;53.350;55.922;2022-07-24T02:17:09;99199.63;;;19.56;79.77
60069;BME280;45945;53.350;55.922;2022-07-24T02:18:10;99204.13;;;19.54;79.81
60069;BME280;45945;53.350;55.922;2022-07-24T02:19:11;99199.63;;;19.56;79.55
60069;BME280;45945;53.350;55.922;2022-07-24T02:20:12;99203.38;;;19.49;79.66
60069;BME280;45945;53.350;55.922;2022-07-24T02:21:13;99198.09;;;19.47;79.63
60069;BME280;45945;53.350;55.922;2022-07-24T02:22:13;99201.69;;;19.45;79.92
60069;BME280;45945;53.350;55.922;2022-07-24T02:23:14;99197.84;;;19.58;79.70
60069;BME280;45945;53.350;55.922;2022-07-24T02:24:18;99208.41;;;19.60;79.34
60069;BME280;45945;53.350;55.922;2022-07-24T02:25:19;99203.97;;;19.60;79.03
60069;BME280;45945;53.350;55.922;2022-07-24T02:26:19;99205.56;;;19.68;79.08
60069;BME280;45945;53.350;55.922;2022-07-24T02:27:20;99202.69;;;19.78;78.82
60069;BME280;45945;53.350;55.922;2022-07-24T02:28:21;99205.25;;;19.83;78.11
60069;BME280;45945;53.350;55.922;2022-07-24T02:29:22;99199.94;;;19.83;78.03
60069;BME280;45945;53.350;55.922;2022-07-24T02:30:23;99200.72;;;19.87;78.00
60069;BME280;45945;53.350;55.922;2022-07-24T02:31:27;99201.38;;;19.96;77.68
60069;BME280;45945;53.350;55.922;2022-07-24T02:32:28;99201.13;;;20.06;77.59
60069;BME280;45945;53.350;55.922;2022-07-24T02:33:29;99200.03;;;20.14;76.87
60069;BME280;45945;53.350;55.922;2022-07-24T02:34:30;99196.47;;;20.15;77.00
60069;BME280;45945;53.350;55.922;2022-07-24T02:35:31;99206.81;;;20.26;76.55
60069;BME280;45945;53.350;55.922;2022-07-24T02:36:31;99206.66;;;20.32;76.86
60069;BME280;45945;53.350;55.922;2022-07-24T02:37:35;99203.72;;;20.43;76.35
60069;BME280;45945;53.350;55.922;2022-07-24T02:38:36;99206.06;;;20.54;75.84
60069;BME280;45945;53.350;55.922;2022-07-24T02:39:37;99209.41;;;20.62;75.27
60069;BME280;45945;53.350;55.922;2022-07-24T02:40:37;99199.59;;;20.64;75.37
60069;BME280;45945;53.350;55.922;2022-07-24T02:41:38;99197.50;;;20.77;74.68
60069;BME280;45945;53.350;55.922;2022-07-24T02:42:39;99200.81;;;20.85;74.63
60069;BME280;45945;53.350;55.922;2022-07-24T02:43:40;99197.03;;;20.94;74.73
60069;BME280;45945;53.350;55.922;2022-07-24T02:44:40;99201.53;;;20.91;73.44
60069;BME280;45945;53.350;55.922;2022-07-24T02:45:41;99200.19;;;20.76;73.84
60069;BME280;45945;53.350;55.922;2022-07-24T02:46:42;99200.94;;;20.81;73.57
60069;BME280;45945;53.350;55.922;2022-07-24T02:47:47;99203.66;;;20.79;73.89
60069;BME280;45945;53.350;55.922;2022-07-24T02:48:48;99198.66;;;20.98;73.30
60069;BME280;45945;53.350;55.922;2022-07-24T02:49:48;99201.91;;;21.10;73.58
60069;BME280;45945;53.350;55.922;2022-07-24T02:50:49;99198.16;;;21.17;72.46
60069;BME280;45945;53.350;55.922;2022-07-24T02:51:50;99198.88;;;21.22;72.50
60069;BME280;45945;53.350;55.922;2022-07-24T02:52:51;99199.91;;;21.16;71.80
60069;BME280;45945;53.350;55.922;2022-07-24T02:53:52;99198.41;;;21.08;72.15
60069;BME280;45945;53.350;55.922;2022-07-24T02:54:52;99202.56;;;21.16;72.09
60069;BME280;45945;53.350;55.922;2022-07-24T02:55:53;99198.47;;;21.34;71.64
60069;BME280;45945;53.350;55.922;2022-07-24T02:56:54;99199.94;;;21.45;71.68
60069;BME280;45945;53.350;55.922;2022-07-24T02:57:55;99199.63;;;21.55;71.42
60069;BME280;45945;53.350;55.922;2022-07-24T02:58:56;99201.38;;;21.56;70.87
60069;BME280;45945;53.350;55.922;2022-07-24T02:59:57;99202.25;;;21.57;70.43
60069;BME280;45945;53.350;55.922;2022-07-24T03:00:58;99197.81;;;21.57;70.57
60069;BME280;45945;53.350;55.922;2022-07-24T03:01:59;99195.72;;;21.67;70.85
60069;BME280;45945;53.350;55.922;2022-07-24T03:03:00;99201.59;;;21.79;70.18
60069;BME280;45945;53.350;55.922;2022-07-24T03:04:00;99196.41;;;22.01;70.33
60069;BME280;45945;53.350;55.922;2022-07-24T03:05:04;99195.81;;;21.92;69.35
60069;BME280;45945;53.350;55.922;2022-07-24T03:06:06;99200.09;;;21.97;69.69
60069;BME280;45945;53.350;55.922;2022-07-24T03:07:06;99198.81;;;22.08;69.54
60069;BME280;45945;53.350;55.922;2022-07-24T03:08:07;99196.00;;;22.13;69.31
60069;BME280;45945;53.350;55.922;2022-07-24T03:09:08;99193.75;;;22.27;68.83
60069;BME280;45945;53.350;55.922;2022-07-24T03:10:10;99198.16;;;22.28;69.21
60069;BME280;45945;53.350;55.922;2022-07-24T03:11:11;99202.41;;;22.34;69.24
60069;BME280;45945;53.350;55.922;2022-07-24T03:12:12;99198.28;;;22.51;68.67
60069;BME280;45945;53.350;55.922;2022-07-24T03:13:13;99200.63;;;22.60;68.93
60069;BME280;45945;53.350;55.922;2022-07-24T03:14:13;99202.53;;;22.56;68.58
60069;BME280;45945;53.350;55.922;2022-07-24T03:15:14;99203.38;;;22.57;68.57
60069;BME280;45945;53.350;55.922;2022-07-24T03:16:15;99199.69;;;22.61;67.75
60069;BME280;45945;53.350;55.922;2022-07-24T03:17:19;99203.22;;;22.61;67.92
60069;BME280;45945;53.350;55.922;2022-07-24T03:18:20;99200.84;;;22.79;67.72
60069;BME280;45945;53.350;55.922;2022-07-24T03:19:20;99193.97;;;22.72;67.06
60069;BME280;45945;53.350;55.922;2022-07-24T03:20:22;99202.38;;;22.61;67.01
60069;BME280;45945;53.350;55.922;2022-07-24T03:21:22;99198.66;;;22.65;67.34
60069;BME280;45945;53.350;55.922;2022-07-24T03:22:23;99198.44;;;22.71;66.82
60069;BME280;45945;53.350;55.922;2022-07-24T03:23:24;99203.09;;;22.90;66.20
60069;BME280;45945;53.350;55.922;2022-07-24T03:24:25;99209.53;;;23.08;65.66
60069;BME280;45945;53.350;55.922;2022-07-24T03:25:26;99206.38;;;23.22;65.86
60069;BME280;45945;53.350;55.922;2022-07-24T03:26:27;99205.88;;;23.12;64.73
60069;BME280;45945;53.350;55.922;2022-07-24T03:27:27;99203.09;;;22.90;65.57
60069;BME280;45945;53.350;55.922;2022-07-24T03:28:29;99202.78;;;23.23;65.22
60069;BME280;45945;53.350;55.922;2022-07-24T03:29:30;99199.69;;;23.33;64.45
60069;BME280;45945;53.350;55.922;2022-07-24T03:30:30;99210.66;;;23.26;64.67
60069;BME280;45945;53.350;55.922;2022-07-24T03:31:31;99198.78;;;23.57;65.00
60069;BME280;45945;53.350;55.922;2022-07-24T03:32:32;99201.81;;;23.93;63.09
60069;BME280;45945;53.350;55.922;2022-07-24T03:33:33;99199.22;;;24.12;62.95
60069;BME280;45945;53.350;55.922;2022-07-24T03:34:33;99194.91;;;24.30;62.29
60069;BME280;45945;53.350;55.922;2022-07-24T03:35:34;99202.63;;;24.58;62.57
60069;BME280;45945;53.350;55.922;2022-07-24T03:36:35;99195.53;;;24.78;60.76
60069;BME280;45945;53.350;55.922;2022-07-24T03:37:37;99200.72;;;24.81;61.20
60069;BME280;45945;53.350;55.922;2022-07-24T03:39:03;99201.78;;;24.77;60.54
60069;BME280;45945;53.350;55.922;2022-07-24T03:40:04;99203.25;;;25.05;59.99
60069;BME280;45945;53.350;55.922;2022-07-24T03:41:05;99192.09;;;25.14;59.59
60069;BME280;45945;53.350;55.922;2022-07-24T03:42:06;99198.78;;;25.24;59.32
60069;BME280;45945;53.350;55.922;2022-07-24T03:43:07;99202.81;;;25.14;60.93
60069;BME280;45945;53.350;55.922;2022-07-24T03:44:08;99206.28;;;25.54;58.42
60069;BME280;45945;53.350;55.922;2022-07-24T03:45:09;99198.53;;;25.67;58.45
60069;BME280;45945;53.350;55.922;2022-07-24T03:46:10;99206.25;;;25.92;57.51
60069;BME280;45945;53.350;55.922;2022-07-24T03:47:10;99198.09;;;26.13;56.02
60069;BME280;45945;53.350;55.922;2022-07-24T03:48:11;99207.13;;;25.74;56.34
60069;BME280;45945;53.350;55.922;2022-07-24T03:49:12;99196.88;;;25.64;56.58
60069;BME280;45945;53.350;55.922;2022-07-24T03:50:13;99197.97;;;25.60;56.95
60069;BME280;45945;53.350;55.922;2022-07-24T03:51:13;99205.56;;;25.70;56.48
60069;BME280;45945;53.350;55.922;2022-07-24T03:52:14;99208.19;;;26.08;57.24
60069;BME280;45945;53.350;55.922;2022-07-24T03:53:15;99199.63;;;26.36;56.20
60069;BME280;45945;53.350;55.922;2022-07-24T03:54:15;99203.78;;;26.42;55.65
60069;BME280;45945;53.350;55.922;2022-07-24T03:55:17;99207.03;;;26.48;55.30
60069;BME280;45945;53.350;55.922;2022-07-24T03:56:18;99208.19;;;26.43;54.47
60069;BME280;45945;53.350;55.922;2022-07-24T03:57:19;99207.41;;;26.41;55.24
60069;BME280;45945;53.350;55.922;2022-07-24T03:58:20;99204.88;;;26.55;54.49
60069;BME280;45945;53.350;55.922;2022-07-24T03:59:21;99207.94;;;26.47;54.51
60069;BME280;45945;53.350;55.922;2022-07-24T04:00:22;99202.66;;;26.46;54.69
60069;BME280;45945;53.350;55.922;2022-07-24T04:01:26;99204.09;;;26.70;54.59
60069;BME280;45945;53.350;55.922;2022-07-24T04:02:26;99202.63;;;27.14;53.60
60069;BME280;45945;53.350;55.922;2022-07-24T04:03:27;99201.72;;;27.31;53.00
60069;BME280;45945;53.350;55.922;2022-07-24T04:04:28;99198.03;;;27.50;52.33
60069;BME280;45945;53.350;55.922;2022-07-24T04:05:29;99199.56;;;27.86;50.81
60069;BME280;45945;53.350;55.922;2022-07-24T04:06:30;99199.13;;;27.93;51.45
60069;BME280;45945;53.350;55.922;2022-07-24T04:07:31;99197.94;;;27.67;50.60
60069;BME280;45945;53.350;55.922;2022-07-24T04:08:33;99205.16;;;27.51;51.14
60069;BME280;45945;53.350;55.922;2022-07-24T04:09:34;99190.81;;;27.98;50.52
60069;BME280;45945;53.350;55.922;2022-07-24T04:10:34;99192.31;;;27.56;49.76
60069;BME280;45945;53.350;55.922;2022-07-24T04:11:36;99192.09;;;27.91;50.05
60069;BME280;45945;53.350;55.922;2022-07-24T04:12:36;99194.66;;;27.62;49.22
60069;BME280;45945;53.350;55.922;2022-07-24T04:13:37;99202.25;;;27.70;49.19
60069;BME280;45945;53.350;55.922;2022-07-24T04:14:38;99193.84;;;27.92;49.84
60069;BME280;45945;53.350;55.922;2022-07-24T04:15:39;99189.56;;;28.20;48.89
60069;BME280;45945;53.350;55.922;2022-07-24T04:16:39;99190.78;;;28.59;48.26
60069;BME280;45945;53.350;55.922;2022-07-24T04:17:40;99190.19;;;28.39;47.27
60069;BME280;45945;53.350;55.922;2022-07-24T04:18:41;99190.97;;;28.41;47.21
60069;BME280;45945;53.350;55.922;2022-07-24T04:19:42;99183.31;;;28.19;48.63
60069;BME280;45945;53.350;55.922;2022-07-24T04:20:43;99195.16;;;28.76;46.65
60069;BME280;45945;53.350;55.922;2022-07-24T04:21:44;99189.19;;;28.85;45.64
60069;BME280;45945;53.350;55.922;2022-07-24T04:22:44;99189.13;;;29.15;45.07
60069;BME280;45945;53.350;55.922;2022-07-24T04:23:45;99189.50;;;29.38;45.96
60069;BME280;45945;53.350;55.922;2022-07-24T04:24:46;99189.84;;;29.61;45.62
60069;BME280;45945;53.350;55.922;2022-07-24T04:25:47;99194.41;;;29.73;44.75
60069;BME280;45945;53.350;55.922;2022-07-24T04:26:48;99191.81;;;29.15;46.28
60069;BME280;45945;53.350;55.922;2022-07-24T04:27:48;99192.09;;;29.40;46.44
60069;BME280;45945;53.350;55.922;2022-07-24T04:28:49;99192.91;;;29.55;47.30
60069;BME280;45945;53.350;55.922;2022-07-24T04:29:50;99196.78;;;29.50;46.33
60069;BME280;45945;53.350;55.922;2022-07-24T04:30:51;99198.56;;;29.64;45.40
60069;BME280;45945;53.350;55.922;2022-07-24T04:31:52;99188.78;;;29.91;46.10
60069;BME280;45945;53.350;55.922;2022-07-24T04:32:52;99186.94;;;29.64;45.52
60069;BME280;45945;53.350;55.922;2022-07-24T04:33:53;99185.47;;;29.31;45.66
60069;BME280;45945;53.350;55.922;2022-07-24T04:34:54;99185.78;;;29.26;45.73
60069;BME280;45945;53.350;55.922;2022-07-24T04:35:55;99188.63;;;29.38;45.26
60069;BME280;45945;53.350;55.922;2022-07-24T04:36:56;99186.25;;;28.90;46.14
60069;BME280;45945;53.350;55.922;2022-07-24T04:37:56;99179.31;;;29.14;44.88
60069;BME280;45945;53.350;55.922;2022-07-24T04:38:57;99180.31;;;29.55;44.95
60069;BME280;45945;53.350;55.922;2022-07-24T04:39:58;99184.78;;;30.23;44.80
60069;BME280;45945;53.350;55.922;2022-07-24T04:40:59;99186.59;;;30.10;44.56
60069;BME280;45945;53.350;55.922;2022-07-24T04:42:00;99184.13;;;30.20;44.24
60069;BME280;45945;53.350;55.922;2022-07-24T04:43:07;99185.63;;;30.11;43.85
60069;BME280;45945;53.350;55.922;2022-07-24T04:44:07;99186.38;;;30.13;44.34
60069;BME280;45945;53.350;55.922;2022-07-24T04:45:09;99182.78;;;30.00;43.71
60069;BME280;45945;53.350;55.922;2022-07-24T04:46:12;99186.09;;;30.31;43.76
60069;BME280;45945;53.350;55.922;2022-07-24T04:47:13;99189.94;;;30.54;43.36
60069;BME280;45945;53.350;55.922;2022-07-24T04:48:14;99191.88;;;30.90;42.85
60069;BME280;45945;53.350;55.922;2022-07-24T04:49:15;99186.06;;;30.71;43.83
60069;BME280;45945;53.350;55.922;2022-07-24T04:50:15;99189.06;;;30.53;42.88
60069;BME280;45945;53.350;55.922;2022-07-24T04:51:16;99183.38;;;30.18;43.71
60069;BME280;45945;53.350;55.922;2022-07-24T04:52:17;99188.75;;;30.58;43.58
60069;BME280;45945;53.350;55.922;2022-07-24T04:53:20;99178.81;;;30.58;43.61
60069;BME280;45945;53.350;55.922;2022-07-24T04:54:21;99186.69;;;30.62;42.93
60069;BME280;45945;53.350;55.922;2022-07-24T04:55:25;99182.59;;;30.43;43.00
60069;BME280;45945;53.350;55.922;2022-07-24T04:56:26;99179.28;;;30.12;43.78
60069;BME280;45945;53.350;55.922;2022-07-24T04:57:30;99182.09;;;30.23;43.59
60069;BME280;45945;53.350;55.922;2022-07-24T04:58:31;99187.44;;;30.51;42.96
60069;BME280;45945;53.350;55.922;2022-07-24T04:59:32;99183.16;;;30.74;42.24
60069;BME280;45945;53.350;55.922;2022-07-24T05:00:33;99184.09;;;30.60;42.55
60069;BME280;45945;53.350;55.922;2022-07-24T05:01:34;99177.44;;;30.79;42.27
60069;BME280;45945;53.350;55.922;2022-07-24T05:02:35;99182.16;;;30.75;43.12
60069;BME280;45945;53.350;55.922;2022-07-24T05:03:35;99179.34;;;30.77;42.65
60069;BME280;45945;53.350;55.922;2022-07-24T05:04:36;99177.84;;;30.85;42.22
60069;BME280;45945;53.350;55.922;2022-07-24T05:05:37;99171.81;;;31.44;42.08
60069;BME280;45945;53.350;55.922;2022-07-24T05:06:38;99183.28;;;31.48;41.92
60069;BME280;45945;53.350;55.922;2022-07-24T05:07:38;99177.69;;;31.75;41.88
60069;BME280;45945;53.350;55.922;2022-07-24T05:08:39;99174.97;;;31.38;41.90
60069;BME280;45945;53.350;55.922;2022-07-24T05:09:40;99178.72;;;31.61;41.59
60069;BME280;45945;53.350;55.922;2022-07-24T05:10:41;99179.38;;;31.15;42.01
60069;BME280;45945;53.350;55.922;2022-07-24T05:11:42;99175.75;;;31.27;42.28
60069;BME280;45945;53.350;55.922;2022-07-24T05:12:43;99174.53;;;31.57;41.76
60069;BME280;45945;53.350;55.922;2022-07-24T05:13:43;99174.56;;;31.69;41.24
60069;BME280;45945;53.350;55.922;2022-07-24T05:14:44;99177.84;;;31.85;41.72
60069;BME280;45945;53.350;55.922;2022-07-24T05:15:45;99172.34;;;32.11;40.87
60069;BME280;45945;53.350;55.922;2022-07-24T05:16:46;99174.91;;;31.64;41.53
60069;BME280;45945;53.350;55.922;2022-07-24T05:17:47;99172.91;;;31.55;42.21
60069;BME280;45945;53.350;55.922;2022-07-24T05:18:48;99174.53;;;31.57;41.67
60069;BME280;45945;53.350;55.922;2022-07-24T05:19:49;99173.13;;;32.00;40.59